Tumacacori, Arizona
Current Conditions -  °F | °C
As of 1:54 PM on Monday 20 Oct 2014 (Local Time) from KOLS Reporting Station
Light Rain Light Rain  
Wind Chill: 71°   Ceiling: 9000
Heat Index: 71°   Visibility: 10mi
Dew Point: 43°   Wind: 14mph
Humidity: 36%   Direction: 150°SSE
Pressure: 29.98"   Gusts: 25mph
Location:  31.57°N, 111.05°W
Report Text: KOLS 202054Z AUTO 15012G22KT 10SM -RA FEW060 SCT070 OVC090 22/06 A2998 RMK AO2 PK WND 09035/2030 RAB35 SLP103 P0000 60000 T02170061 55015
Loading
Personal Weather Stations






























Interactive Weather Map
Tropical Storm Tracking
New forecast layout! Learn more

10-Day Weather Forecast

Advertisements
Track Severe Weather on mobile